Time;durP1;ratioP1;P1;durP2;ratioP2;P2;SDS_P1;SDS_P2;PMS_P1;PMS_P2;Temp;Humidity;BMP_temperature;BMP_pressure;BME280_temperature;BME280_humidity;BME280_pressure;Samples;Min_cycle;Max_cycle;Signal;HPM_P1;HPM_P2
2022/01/08 00:00:27;;;;;;;12.00;6.73;;;3.00;99.90;;;;;;5065124;28;20685;-55
2022/01/08 00:02:54;;;;;;;11.13;7.43;;;2.90;99.90;;;;;;5063795;28;20198;-55
2022/01/08 00:05:22;;;;;;;9.53;6.80;;;2.80;99.90;;;;;;5063407;28;20202;-54
2022/01/08 00:07:49;;;;;;;12.27;6.77;;;2.70;99.90;;;;;;5062946;28;20289;-52
2022/01/08 00:10:16;;;;;;;9.50;6.43;;;2.60;99.90;;;;;;5060573;28;20307;-57
2022/01/08 00:12:43;;;;;;;9.93;6.60;;;2.50;99.90;;;;;;5060479;28;20230;-54
2022/01/08 00:15:10;;;;;;;11.67;7.20;;;2.40;99.90;;;;;;5060775;28;20590;-54
2022/01/08 00:17:37;;;;;;;11.83;6.87;;;2.30;99.90;;;;;;5058927;28;20217;-54
2022/01/08 00:20:06;;;;;;;10.20;6.50;;;2.30;99.90;;;;;;5060673;28;20195;-57
2022/01/08 00:22:33;;;;;;;11.57;6.70;;;2.30;99.90;;;;;;5061068;28;20660;-54
2022/01/08 00:25:00;;;;;;;10.20;6.57;;;2.30;99.90;;;;;;5057982;28;20562;-53
2022/01/08 00:27:26;;;;;;;14.83;7.47;;;2.10;99.90;;;;;;5060666;28;20251;-57
2022/01/08 00:29:53;;;;;;;9.03;6.60;;;2.30;99.90;;;;;;5061978;28;20763;-55
2022/01/08 00:32:20;;;;;;;10.40;7.17;;;2.40;99.90;;;;;;5060502;28;20206;-54
2022/01/08 00:34:47;;;;;;;9.53;6.77;;;2.60;99.90;;;;;;5056922;28;20246;-55
2022/01/08 00:37:14;;;;;;;11.07;6.77;;;2.60;99.90;;;;;;5062052;28;20255;-55
2022/01/08 00:39:41;;;;;;;7.73;6.37;;;2.40;99.90;;;;;;5062830;28;20579;-55
2022/01/08 00:42:08;;;;;;;9.03;6.70;;;2.30;99.90;;;;;;5060434;28;22505;-53
2022/01/08 00:44:35;;;;;;;13.43;6.70;;;2.20;99.90;;;;;;5059600;28;20647;-54
2022/01/08 00:47:03;;;;;;;7.70;5.80;;;2.40;99.90;;;;;;5060384;28;20202;-54
2022/01/08 00:49:30;;;;;;;11.73;6.33;;;2.30;99.90;;;;;;5056268;28;20330;-55
2022/01/08 00:51:56;;;;;;;8.00;5.90;;;2.50;99.90;;;;;;5062813;28;20662;-53
2022/01/08 00:54:23;;;;;;;11.37;6.00;;;2.70;99.90;;;;;;5062486;28;20256;-54
2022/01/08 00:56:50;;;;;;;9.17;5.43;;;2.50;99.90;;;;;;5065596;28;21188;-54
2022/01/08 00:59:17;;;;;;;10.60;5.20;;;2.50;99.90;;;;;;5060959;28;20874;-53
2022/01/08 01:01:44;;;;;;;7.97;5.33;;;2.50;99.90;;;;;;5060237;28;21137;-54
2022/01/08 01:04:11;;;;;;;7.87;5.10;;;2.60;99.90;;;;;;5055382;28;20988;-55
2022/01/08 01:06:38;;;;;;;8.17;5.13;;;2.50;99.90;;;;;;5058103;28;20895;-55
2022/01/08 01:09:05;;;;;;;7.83;4.73;;;2.40;99.90;;;;;;5056036;28;20690;-54
2022/01/08 01:11:32;;;;;;;6.30;4.53;;;2.30;99.90;;;;;;5056137;28;20525;-53
2022/01/08 01:13:59;;;;;;;7.80;4.53;;;2.20;99.90;;;;;;5055427;28;21304;-53
2022/01/08 01:16:26;;;;;;;7.70;5.33;;;2.20;99.90;;;;;;5056752;28;20924;-56
2022/01/08 01:18:54;;;;;;;7.00;4.77;;;2.40;99.90;;;;;;5054527;28;20260;-55
2022/01/08 01:21:21;;;;;;;15.30;5.20;;;2.60;99.90;;;;;;5055566;28;20663;-54
2022/01/08 01:23:49;;;;;;;9.33;5.03;;;2.50;99.90;;;;;;5055438;28;20205;-54
2022/01/08 01:26:20;;;;;;;9.70;4.77;;;2.60;99.90;;;;;;5058768;28;20268;-53
2022/01/08 01:43:16;;;;;;;5.67;4.10;;;2.50;99.90;;;;;;5056115;28;20341;-55
2022/01/08 01:48:25;;;;;;;6.00;4.20;;;2.30;99.90;;;;;;5056253;28;21096;-53
2022/01/08 01:50:52;;;;;;;8.20;5.17;;;2.10;99.90;;;;;;5056055;28;20349;-57
2022/01/08 01:53:19;;;;;;;8.90;4.57;;;2.20;99.90;;;;;;5056224;28;20299;-54
2022/01/08 01:55:50;;;;;;;9.67;5.77;;;2.30;99.90;;;;;;5056815;28;20202;-54
2022/01/08 01:58:17;;;;;;;10.93;4.47;;;2.30;99.90;;;;;;5057655;28;20208;-54
2022/01/08 02:00:47;;;;;;;11.37;5.43;;;2.40;99.90;;;;;;5056948;28;20238;-53
2022/01/08 02:03:14;;;;;;;6.70;4.87;;;2.40;99.90;;;;;;5057364;28;20210;-54
2022/01/08 02:05:42;;;;;;;7.10;4.57;;;2.50;99.90;;;;;;5057141;28;20283;-54
2022/01/08 02:08:12;;;;;;;6.67;5.03;;;2.40;99.90;;;;;;5054997;28;20218;-55
2022/01/08 02:10:40;;;;;;;13.03;4.93;;;2.20;99.90;;;;;;5057763;28;20195;-54
2022/01/08 02:13:07;;;;;;;10.43;4.97;;;2.00;99.90;;;;;;5056502;28;20208;-53
2022/01/08 02:15:36;;;;;;;9.13;4.73;;;2.00;99.90;;;;;;5054377;28;20213;-56
2022/01/08 02:18:04;;;;;;;5.90;4.90;;;1.80;99.90;;;;;;5055164;28;20315;-55
2022/01/08 02:20:32;;;;;;;6.43;4.60;;;1.70;99.90;;;;;;5051941;28;20199;-54
2022/01/08 02:22:59;;;;;;;6.00;4.47;;;1.70;99.90;;;;;;5055526;28;20202;-55
2022/01/08 02:25:26;;;;;;;11.53;4.33;;;1.70;99.90;;;;;;5054568;28;20283;-57
2022/01/08 02:27:54;;;;;;;9.20;5.20;;;1.70;99.90;;;;;;5055064;28;20202;-54
2022/01/08 02:30:21;;;;;;;8.60;4.60;;;1.60;99.90;;;;;;5058647;28;20218;-55
2022/01/08 02:32:48;;;;;;;6.83;5.07;;;1.60;99.90;;;;;;5057389;28;20591;-54
2022/01/08 02:35:16;;;;;;;6.70;4.70;;;1.60;99.90;;;;;;5053841;28;20289;-53
2022/01/08 02:37:43;;;;;;;8.17;4.70;;;1.50;99.90;;;;;;5055193;28;20209;-55
2022/01/08 02:40:11;;;;;;;8.80;4.63;;;1.60;99.90;;;;;;5057868;28;20213;-53
2022/01/08 02:42:49;;;;;;;8.90;5.03;;;1.50;99.90;;;;;;5056034;28;20217;-52
2022/01/08 02:45:17;;;;;;;5.53;4.70;;;1.60;99.90;;;;;;5054116;28;20210;-53
2022/01/08 02:47:45;;;;;;;10.73;5.10;;;1.50;99.90;;;;;;5055013;28;20556;-53
2022/01/08 02:50:12;;;;;;;7.67;4.60;;;1.50;99.90;;;;;;5052462;28;20238;-54
2022/01/08 02:52:42;;;;;;;8.27;5.60;;;1.50;99.90;;;;;;5052854;28;20289;-54
2022/01/08 02:55:10;;;;;;;7.67;4.70;;;1.50;99.90;;;;;;5056744;28;20198;-54
2022/01/08 02:57:37;;;;;;;9.17;5.33;;;1.50;99.90;;;;;;5055373;28;20646;-56
2022/01/08 03:00:07;;;;;;;8.30;5.50;;;1.50;99.90;;;;;;5052678;28;20240;-56
2022/01/08 03:02:39;;;;;;;10.33;5.17;;;1.50;99.90;;;;;;5054683;28;20213;-57
2022/01/08 03:05:07;;;;;;;9.07;5.00;;;1.50;99.90;;;;;;5052335;28;20340;-58
2022/01/08 03:07:35;;;;;;;8.97;4.60;;;1.50;99.90;;;;;;5055468;28;20616;-56
2022/01/08 03:10:02;;;;;;;9.10;4.97;;;1.60;99.90;;;;;;5053494;28;20283;-54
2022/01/08 03:12:30;;;;;;;8.17;4.13;;;1.60;99.90;;;;;;5056234;28;20224;-55
2022/01/08 03:14:57;;;;;;;6.57;4.70;;;1.60;99.90;;;;;;5054838;28;20248;-54
2022/01/08 03:17:24;;;;;;;9.30;4.27;;;1.50;99.90;;;;;;5054230;28;20651;-53
2022/01/08 03:19:53;;;;;;;8.43;4.43;;;1.60;99.90;;;;;;5053679;28;20206;-54
2022/01/08 03:22:21;;;;;;;11.70;5.50;;;1.60;99.90;;;;;;5053299;28;20208;-54
2022/01/08 03:24:48;;;;;;;8.70;5.20;;;1.70;99.90;;;;;;5053653;28;20673;-55
2022/01/08 03:27:16;;;;;;;7.50;4.67;;;1.70;99.90;;;;;;5054488;28;20340;-55
2022/01/08 03:29:43;;;;;;;8.87;5.07;;;1.70;99.90;;;;;;5055851;28;20260;-52
2022/01/08 03:32:10;;;;;;;10.57;4.63;;;1.60;99.90;;;;;;5052303;28;20300;-53
2022/01/08 03:34:37;;;;;;;7.80;4.40;;;1.80;99.90;;;;;;5054060;28;20332;-55
2022/01/08 03:37:05;;;;;;;8.93;4.43;;;1.80;99.90;;;;;;5054404;28;20205;-52
2022/01/08 03:39:32;;;;;;;6.23;4.40;;;1.80;99.90;;;;;;5052472;28;20263;-55
2022/01/08 03:41:59;;;;;;;8.07;4.03;;;1.80;99.90;;;;;;5055863;28;20206;-55
2022/01/08 03:44:26;;;;;;;7.63;5.47;;;1.80;99.90;;;;;;5052628;28;20203;-52
2022/01/08 03:46:53;;;;;;;9.93;4.97;;;1.90;99.90;;;;;;5052402;28;20656;-51
2022/01/08 03:49:25;;;;;;;9.47;4.87;;;1.80;99.90;;;;;;5051182;28;20220;-54
2022/01/08 03:51:54;;;;;;;9.90;5.00;;;1.80;99.90;;;;;;5054894;28;20201;-54
2022/01/08 03:54:21;;;;;;;10.23;4.50;;;2.00;99.90;;;;;;5053571;28;20205;-53
2022/01/08 03:56:49;;;;;;;9.37;4.60;;;1.90;99.90;;;;;;5069767;28;20258;-58
2022/01/08 03:59:16;;;;;;;5.37;4.27;;;1.90;99.90;;;;;;5053934;28;20245;-54
2022/01/08 04:01:43;;;;;;;12.00;5.17;;;1.80;99.90;;;;;;5041762;28;20207;-54
2022/01/08 04:04:11;;;;;;;10.47;5.47;;;1.90;99.90;;;;;;5052906;28;20215;-56
2022/01/08 04:06:38;;;;;;;7.33;5.07;;;1.90;99.90;;;;;;5053531;28;20392;-54
2022/01/08 04:09:05;;;;;;;9.77;5.07;;;1.80;99.90;;;;;;5068722;28;20284;-53
2022/01/08 04:11:32;;;;;;;9.87;5.33;;;1.70;99.90;;;;;;5070519;28;20226;-55
2022/01/08 04:13:59;;;;;;;8.57;4.87;;;1.70;99.90;;;;;;5052136;28;20281;-57
2022/01/08 04:16:32;;;;;;;8.77;5.23;;;1.70;99.90;;;;;;5051862;28;20298;-54
2022/01/08 04:19:00;;;;;;;7.13;4.43;;;1.70;99.90;;;;;;5052105;28;20378;-57
2022/01/08 04:24:07;;;;;;;7.33;5.60;;;1.50;99.90;;;;;;5054085;28;20331;-55
2022/01/08 04:26:34;;;;;;;7.40;4.73;;;1.50;99.90;;;;;;5055003;28;20568;-54
2022/01/08 04:29:03;;;;;;;13.10;5.20;;;1.50;99.90;;;;;;5053076;28;20268;-55
2022/01/08 04:31:30;;;;;;;9.00;4.80;;;1.60;99.90;;;;;;5053594;28;20209;-54
2022/01/08 04:33:57;;;;;;;13.73;5.90;;;1.50;99.90;;;;;;5051595;28;20245;-57
2022/01/08 04:36:24;;;;;;;9.67;4.83;;;1.50;99.90;;;;;;5053939;28;20199;-54
2022/01/08 04:38:51;;;;;;;12.03;5.67;;;1.50;99.90;;;;;;5054020;28;20250;-55
2022/01/08 04:41:18;;;;;;;7.83;5.03;;;1.50;99.90;;;;;;5058086;28;20289;-52
2022/01/08 04:43:45;;;;;;;12.47;5.70;;;1.50;99.90;;;;;;5057258;28;20234;-53
2022/01/08 04:46:12;;;;;;;11.20;4.77;;;1.50;99.90;;;;;;5055422;28;20207;-54
2022/01/08 04:48:39;;;;;;;10.13;5.57;;;1.50;99.90;;;;;;5071398;28;20330;-58
2022/01/08 04:51:06;;;;;;;10.57;5.20;;;1.50;99.90;;;;;;5060319;28;20210;-53
2022/01/08 04:53:33;;;;;;;9.67;5.87;;;1.50;99.90;;;;;;5058036;28;20755;-52
2022/01/08 04:56:00;;;;;;;12.77;6.77;;;1.60;99.90;;;;;;5071801;28;22046;-53
2022/01/08 04:58:28;;;;;;;13.03;6.50;;;1.70;99.90;;;;;;5058871;28;20313;-53
2022/01/08 05:00:56;;;;;;;11.40;5.60;;;1.50;99.90;;;;;;5057319;28;20207;-55
2022/01/08 05:03:23;;;;;;;8.77;5.93;;;1.40;99.90;;;;;;5056147;28;20210;-54
2022/01/08 05:05:50;;;;;;;12.93;5.27;;;1.40;99.90;;;;;;5055126;28;20716;-54
2022/01/08 05:08:17;;;;;;;7.50;5.67;;;1.40;99.90;;;;;;5057018;28;20241;-53
2022/01/08 05:10:44;;;;;;;12.30;5.70;;;1.50;99.90;;;;;;5037406;28;20259;-54
2022/01/08 05:13:11;;;;;;;9.73;5.83;;;1.40;99.90;;;;;;5057742;28;20199;-53
2022/01/08 05:15:38;;;;;;;12.33;6.30;;;1.40;99.90;;;;;;5053401;28;20214;-58
2022/01/08 05:18:08;;;;;;;10.43;6.10;;;1.40;99.90;;;;;;5056473;28;20658;-54
2022/01/08 05:20:38;;;;;;;12.40;6.83;;;1.40;99.90;;;;;;5053238;28;20876;-54
2022/01/08 05:23:05;;;;;;;11.90;6.33;;;1.30;99.90;;;;;;5054265;28;20274;-55
2022/01/08 05:25:33;;;;;;;11.83;6.33;;;1.30;99.90;;;;;;5055076;28;20256;-54
2022/01/08 05:28:00;;;;;;;10.90;5.37;;;1.40;99.90;;;;;;5057105;28;20204;-55
2022/01/08 05:30:28;;;;;;;10.33;5.77;;;1.30;99.90;;;;;;5062489;28;20243;-58
2022/01/08 05:32:55;;;;;;;9.70;6.53;;;1.30;99.90;;;;;;5055290;28;20331;-54
2022/01/08 05:35:24;;;;;;;11.27;6.00;;;1.30;99.90;;;;;;5054453;28;20622;-56
2022/01/08 05:37:51;;;;;;;15.77;6.47;;;1.30;99.90;;;;;;5056065;28;20208;-56
2022/01/08 05:40:18;;;;;;;10.70;7.23;;;1.30;99.90;;;;;;5054168;28;20295;-55
2022/01/08 05:42:47;;;;;;;14.60;6.80;;;1.30;99.90;;;;;;5053625;28;20236;-55
2022/01/08 05:45:14;;;;;;;12.73;6.40;;;1.30;99.90;;;;;;5055454;28;20308;-54
2022/01/08 05:47:41;;;;;;;13.67;7.17;;;1.30;99.90;;;;;;5056011;28;20756;-57
2022/01/08 05:50:09;;;;;;;12.07;6.83;;;1.50;99.90;;;;;;5056825;28;20219;-55
2022/01/08 05:52:36;;;;;;;12.60;6.67;;;1.50;99.90;;;;;;5055610;28;20229;-54
2022/01/08 05:55:04;;;;;;;12.47;6.80;;;1.40;99.90;;;;;;5054618;28;20336;-54
2022/01/08 05:57:31;;;;;;;13.80;6.83;;;1.40;99.90;;;;;;5058836;28;20636;-55
2022/01/08 05:59:57;;;;;;;8.90;6.43;;;1.40;99.90;;;;;;5056924;28;20645;-54
2022/01/08 06:02:24;;;;;;;11.47;6.63;;;1.50;99.90;;;;;;5056034;28;20289;-55
2022/01/08 06:04:51;;;;;;;10.87;5.83;;;1.50;99.90;;;;;;5051504;28;20641;-56
2022/01/08 06:07:18;;;;;;;13.53;6.33;;;1.50;99.90;;;;;;5055872;28;20202;-55
2022/01/08 06:09:45;;;;;;;14.70;7.30;;;1.50;99.90;;;;;;5056294;28;20268;-54
2022/01/08 06:12:12;;;;;;;7.87;6.70;;;1.50;99.90;;;;;;5055587;28;20249;-54
2022/01/08 06:14:39;;;;;;;7.77;6.10;;;1.50;99.90;;;;;;5053675;28;20248;-54
2022/01/08 06:17:06;;;;;;;13.07;7.10;;;1.50;99.90;;;;;;5055196;28;20213;-54
2022/01/08 06:19:33;;;;;;;10.10;6.90;;;1.60;99.90;;;;;;5054676;28;20321;-54
2022/01/08 06:22:01;;;;;;;9.50;6.47;;;1.60;99.90;;;;;;5055996;28;20322;-54
2022/01/08 06:24:28;;;;;;;18.83;6.97;;;1.70;99.90;;;;;;5054587;28;21124;-54
2022/01/08 06:26:55;;;;;;;16.53;6.90;;;1.70;99.90;;;;;;5054574;28;20290;-54
2022/01/08 06:29:22;;;;;;;11.07;6.73;;;1.60;99.90;;;;;;5059378;28;20287;-53
2022/01/08 06:31:48;;;;;;;15.50;6.93;;;1.70;99.90;;;;;;5057344;28;20490;-57
2022/01/08 06:34:15;;;;;;;15.97;7.23;;;1.80;99.90;;;;;;5053933;28;20288;-57
2022/01/08 06:36:42;;;;;;;14.43;7.70;;;1.90;99.90;;;;;;5053039;28;20206;-55
2022/01/08 06:39:09;;;;;;;13.47;6.50;;;2.00;99.90;;;;;;5051894;28;20211;-53
2022/01/08 06:41:36;;;;;;;11.23;6.37;;;2.00;99.90;;;;;;5054261;28;20683;-58
2022/01/08 06:44:03;;;;;;;10.60;6.77;;;2.00;99.90;;;;;;5055238;28;20233;-53
2022/01/08 06:46:30;;;;;;;9.50;6.40;;;1.80;99.90;;;;;;5054476;28;20208;-55
2022/01/08 06:48:57;;;;;;;14.00;7.17;;;2.00;99.90;;;;;;5054301;28;20744;-53
2022/01/08 06:51:25;;;;;;;13.20;6.57;;;2.00;99.90;;;;;;5053277;28;20637;-55
2022/01/08 06:53:52;;;;;;;15.33;6.67;;;2.10;99.90;;;;;;5051640;28;20207;-52
2022/01/08 06:56:19;;;;;;;10.03;6.60;;;2.00;99.90;;;;;;5052197;28;20283;-53
2022/01/08 06:58:46;;;;;;;9.60;5.60;;;2.00;99.90;;;;;;5055133;28;20291;-57
2022/01/08 07:01:14;;;;;;;12.77;6.17;;;2.00;99.90;;;;;;5048759;28;20980;-54
2022/01/08 07:03:40;;;;;;;9.83;6.50;;;2.00;99.90;;;;;;5054297;28;20606;-56
2022/01/08 07:06:07;;;;;;;10.17;6.07;;;2.00;99.90;;;;;;5055191;28;20206;-54
2022/01/08 07:08:34;;;;;;;15.43;6.40;;;2.00;99.90;;;;;;5054223;28;20660;-53
2022/01/08 07:11:01;;;;;;;13.40;6.47;;;2.00;99.90;;;;;;5053480;28;20385;-54
2022/01/08 07:13:28;;;;;;;7.77;6.17;;;2.00;99.90;;;;;;5052874;28;20289;-55
2022/01/08 07:15:55;;;;;;;10.90;6.07;;;1.90;99.90;;;;;;5054831;28;20206;-54
2022/01/08 07:18:22;;;;;;;13.20;6.53;;;1.90;99.90;;;;;;5054577;28;20206;-54
2022/01/08 07:20:49;;;;;;;8.73;6.13;;;1.90;99.90;;;;;;5053026;28;20250;-53
2022/01/08 07:23:15;;;;;;;11.23;6.17;;;2.00;99.90;;;;;;5057117;28;20302;-51
2022/01/08 07:25:42;;;;;;;18.33;6.50;;;1.90;99.90;;;;;;5053964;28;20319;-53
2022/01/08 07:28:09;;;;;;;12.17;6.07;;;1.90;99.90;;;;;;5053944;28;20207;-53
2022/01/08 07:30:36;;;;;;;9.43;6.47;;;1.80;99.90;;;;;;5052751;28;20206;-54
2022/01/08 07:33:03;;;;;;;16.03;6.30;;;1.90;99.90;;;;;;5058303;28;20634;-52
2022/01/08 07:35:30;;;;;;;15.10;6.47;;;1.80;99.90;;;;;;5055509;28;20284;-54
2022/01/08 07:37:57;;;;;;;9.33;6.23;;;2.00;99.90;;;;;;5074327;28;20237;-53
2022/01/08 07:40:24;;;;;;;12.47;6.70;;;1.90;99.90;;;;;;5056454;28;20289;-53
2022/01/08 07:42:51;;;;;;;13.53;6.23;;;1.80;99.90;;;;;;5052859;28;20298;-55
2022/01/08 07:45:19;;;;;;;11.67;6.90;;;1.80;99.90;;;;;;5052604;28;20308;-55
2022/01/08 07:47:46;;;;;;;10.33;6.37;;;1.80;99.90;;;;;;5055174;28;20593;-52
2022/01/08 07:50:14;;;;;;;9.00;6.33;;;2.00;99.90;;;;;;5053283;28;20244;-53
2022/01/08 07:52:42;;;;;;;11.53;6.90;;;1.90;99.90;;;;;;5053271;28;20249;-55
2022/01/08 07:55:10;;;;;;;12.93;6.53;;;1.80;99.90;;;;;;5054931;28;20198;-54
2022/01/08 07:57:38;;;;;;;13.93;7.67;;;1.80;99.90;;;;;;5051671;28;20599;-56
2022/01/08 08:00:05;;;;;;;13.43;6.83;;;1.80;99.90;;;;;;5052303;28;22715;-52
2022/01/08 08:02:32;;;;;;;10.87;6.47;;;1.90;99.90;;;;;;5055139;28;20258;-55
2022/01/08 08:04:59;;;;;;;11.23;6.47;;;1.80;99.90;;;;;;5054564;28;20227;-54
2022/01/08 08:07:28;;;;;;;14.80;6.50;;;1.70;99.90;;;;;;5057257;28;20327;-56
2022/01/08 08:09:55;;;;;;;10.33;5.87;;;1.70;99.90;;;;;;5057528;28;20247;-55
2022/01/08 08:12:23;;;;;;;15.83;6.53;;;1.70;99.90;;;;;;5056826;28;20650;-56
2022/01/08 08:14:50;;;;;;;9.40;6.33;;;1.70;99.90;;;;;;5056269;28;20644;-56
2022/01/08 08:17:17;;;;;;;10.13;5.97;;;1.70;99.90;;;;;;5048494;28;20227;-55
2022/01/08 08:19:43;;;;;;;9.10;5.93;;;1.80;99.90;;;;;;5059109;28;20830;-53
2022/01/08 08:22:10;;;;;;;7.50;6.00;;;1.70;99.90;;;;;;5061922;28;20619;-54
2022/01/08 08:24:37;;;;;;;8.27;5.87;;;1.70;99.90;;;;;;5061042;28;20630;-53
2022/01/08 08:27:05;;;;;;;13.63;5.80;;;1.70;99.90;;;;;;5062473;28;20216;-54
2022/01/08 08:29:32;;;;;;;9.23;5.67;;;1.80;99.90;;;;;;5061790;28;20611;-55
2022/01/08 08:31:59;;;;;;;13.07;6.00;;;1.80;99.90;;;;;;5061079;28;20286;-54
2022/01/08 08:34:26;;;;;;;8.43;5.50;;;1.80;99.90;;;;;;5057413;28;20247;-56
2022/01/08 08:36:53;;;;;;;12.23;6.00;;;1.80;99.90;;;;;;5062628;28;20201;-56
2022/01/08 08:39:20;;;;;;;12.67;6.20;;;1.80;99.90;;;;;;5059871;28;20621;-55
2022/01/08 08:41:47;;;;;;;8.97;5.97;;;1.90;99.90;;;;;;5061614;28;20248;-53
2022/01/08 08:44:14;;;;;;;17.07;6.30;;;1.80;99.90;;;;;;5060643;28;20729;-54
2022/01/08 08:46:41;;;;;;;9.57;6.70;;;1.80;99.90;;;;;;5062089;28;20226;-56
2022/01/08 08:49:07;;;;;;;12.10;6.73;;;1.80;99.90;;;;;;5058581;28;20313;-53
2022/01/08 08:51:34;;;;;;;10.37;6.30;;;1.80;99.90;;;;;;5059726;28;20862;-54
2022/01/08 08:54:02;;;;;;;10.30;7.20;;;1.90;99.90;;;;;;5056409;28;20336;-57
2022/01/08 08:56:29;;;;;;;14.43;6.53;;;1.90;99.90;;;;;;5057560;28;20214;-55
2022/01/08 08:58:56;;;;;;;13.03;7.00;;;1.80;99.90;;;;;;5060072;28;20204;-55
2022/01/08 09:01:25;;;;;;;14.23;6.63;;;1.80;99.90;;;;;;5059207;28;20283;-55
2022/01/08 09:03:53;;;;;;;13.83;6.63;;;1.90;99.90;;;;;;5061751;28;20215;-55
2022/01/08 09:06:20;;;;;;;12.53;6.23;;;1.90;99.90;;;;;;5062379;28;20246;-52
2022/01/08 09:08:49;;;;;;;14.83;7.47;;;1.90;99.90;;;;;;5077001;28;20377;-53
2022/01/08 09:11:16;;;;;;;11.83;7.07;;;1.90;99.90;;;;;;5061293;28;20618;-52
2022/01/08 09:13:43;;;;;;;16.10;7.87;;;1.90;99.90;;;;;;5062329;28;20231;-52
2022/01/08 09:16:09;;;;;;;13.97;6.80;;;1.90;99.90;;;;;;5060808;28;20253;-53
2022/01/08 09:18:37;;;;;;;12.40;7.90;;;1.90;99.90;;;;;;5059018;28;20632;-52
2022/01/08 09:21:04;;;;;;;16.43;7.30;;;1.90;99.90;;;;;;5057641;28;20211;-54
2022/01/08 09:23:33;;;;;;;12.93;7.97;;;1.90;99.90;;;;;;5075649;28;20622;-53
2022/01/08 09:26:01;;;;;;;14.43;8.27;;;2.00;99.90;;;;;;5059223;28;20300;-53
2022/01/08 09:28:28;;;;;;;14.63;8.87;;;2.00;99.90;;;;;;5061760;28;20414;-52
2022/01/08 09:30:56;;;;;;;11.60;7.70;;;2.00;99.90;;;;;;5062086;28;20217;-53
2022/01/08 09:33:24;;;;;;;18.23;9.03;;;2.00;99.90;;;;;;5057044;28;20270;-56
2022/01/08 09:35:51;;;;;;;15.97;8.07;;;2.10;99.90;;;;;;5056050;28;20674;-53
2022/01/08 09:38:19;;;;;;;15.43;8.83;;;2.10;99.90;;;;;;5061265;28;20587;-54
2022/01/08 09:40:50;;;;;;;13.97;8.73;;;2.10;99.90;;;;;;5058514;28;20306;-53
2022/01/08 09:43:18;;;;;;;17.37;8.37;;;2.10;99.90;;;;;;5059944;28;20201;-53
2022/01/08 09:45:45;;;;;;;14.97;9.33;;;2.10;99.90;;;;;;5057797;28;20207;-55
2022/01/08 09:48:12;;;;;;;20.60;9.60;;;2.20;99.90;;;;;;5059541;28;20202;-52
2022/01/08 09:50:41;;;;;;;19.30;10.00;;;2.20;99.90;;;;;;5057347;28;20228;-53
2022/01/08 09:53:09;;;;;;;12.57;8.60;;;2.20;99.90;;;;;;5060395;28;20206;-53
2022/01/08 09:55:36;;;;;;;16.40;9.67;;;2.30;99.90;;;;;;5056681;28;20202;-53
2022/01/08 09:58:03;;;;;;;16.67;9.50;;;2.30;99.90;;;;;;5059283;28;20203;-53
2022/01/08 10:00:33;;;;;;;15.17;9.43;;;2.40;99.90;;;;;;5059438;28;20220;-55
2022/01/08 10:03:33;;;;;;;17.80;9.93;;;2.50;99.90;;;;;;5060007;28;20666;-52
2022/01/08 10:06:01;;;;;;;19.03;9.73;;;2.50;99.90;;;;;;5029294;28;20206;-54
2022/01/08 10:08:43;;;;;;;18.17;10.63;;;2.50;99.90;;;;;;5058974;28;20378;-53
2022/01/08 10:11:12;;;;;;;18.90;10.30;;;2.60;99.90;;;;;;5061274;28;20704;-51
2022/01/08 10:13:41;;;;;;;18.50;9.47;;;2.60;99.90;;;;;;5060122;28;20198;-56
2022/01/08 10:19:15;;;;;;;15.63;9.27;;;2.60;99.90;;;;;;5058578;28;20198;-53
2022/01/08 10:21:43;;;;;;;19.70;9.83;;;2.60;99.90;;;;;;5057032;28;20275;-55
2022/01/08 10:24:11;;;;;;;18.20;9.10;;;2.60;99.90;;;;;;5060019;28;20229;-54
2022/01/08 10:26:40;;;;;;;15.67;9.17;;;2.70;99.90;;;;;;5058750;28;20196;-55
2022/01/08 10:29:18;;;;;;;18.30;10.20;;;2.70;99.90;;;;;;5059609;28;20204;-55
2022/01/08 10:31:47;;;;;;;18.57;8.63;;;2.80;99.90;;;;;;5058473;28;20240;-56
2022/01/08 10:34:19;;;;;;;13.67;8.77;;;2.70;99.90;;;;;;5054918;28;20240;-57
2022/01/08 10:36:56;;;;;;;15.80;9.30;;;2.70;99.90;;;;;;5056220;28;20310;-55
2022/01/08 10:39:35;;;;;;;17.30;8.83;;;2.80;99.90;;;;;;5055395;28;20202;-52
2022/01/08 10:42:10;;;;;;;14.13;7.40;;;2.80;99.90;;;;;;5055732;28;20642;-55
2022/01/08 10:44:38;;;;;;;16.47;7.57;;;2.90;99.90;;;;;;5054793;28;20220;-56
2022/01/08 10:47:16;;;;;;;16.23;8.50;;;2.90;99.90;;;;;;5055130;28;20233;-54
2022/01/08 10:50:09;;;;;;;15.73;7.93;;;2.90;99.90;;;;;;5052429;28;20319;-53
2022/01/08 10:52:48;;;;;;;14.93;8.87;;;2.90;99.90;;;;;;5055579;28;20229;-56
2022/01/08 10:55:30;;;;;;;13.73;7.97;;;3.00;99.90;;;;;;5069836;28;20299;-53
2022/01/08 10:57:57;;;;;;;15.37;7.80;;;3.00;99.90;;;;;;5054502;28;20211;-53
2022/01/08 11:00:31;;;;;;;17.67;9.60;;;3.00;99.90;;;;;;5057452;28;20977;-57
2022/01/08 11:02:58;;;;;;;14.27;7.10;;;3.10;99.90;;;;;;5055136;28;20209;-53
2022/01/08 11:05:27;;;;;;;11.67;7.63;;;3.10;99.90;;;;;;5053603;28;20198;-55
2022/01/08 11:08:15;;;;;;;13.37;8.40;;;3.10;99.90;;;;;;5056766;28;20279;-56
2022/01/08 11:10:42;;;;;;;13.87;8.03;;;3.10;99.90;;;;;;5056584;28;20325;-55
2022/01/08 11:13:14;;;;;;;14.60;7.57;;;3.20;99.90;;;;;;5058727;28;20242;-55
2022/01/08 11:15:51;;;;;;;12.20;7.73;;;3.40;99.90;;;;;;5058319;28;20206;-55
2022/01/08 11:18:19;;;;;;;19.23;7.50;;;3.50;99.90;;;;;;5056009;28;20287;-56
2022/01/08 11:20:55;;;;;;;16.47;8.40;;;3.50;99.90;;;;;;5050216;28;20260;-53
2022/01/08 11:23:31;;;;;;;15.53;6.53;;;3.50;99.90;;;;;;5054813;28;20206;-54
2022/01/08 11:25:58;;;;;;;9.67;6.27;;;3.40;99.90;;;;;;5053536;28;20258;-53
2022/01/08 11:28:34;;;;;;;12.10;6.87;;;3.50;99.90;;;;;;5052344;28;20248;-57
2022/01/08 11:31:02;;;;;;;12.53;6.43;;;3.70;99.90;;;;;;5055785;28;20212;-54
2022/01/08 11:33:34;;;;;;;13.67;6.00;;;3.80;99.90;;;;;;5053141;28;20426;-53
2022/01/08 11:36:01;;;;;;;17.63;6.77;;;3.70;99.90;;;;;;5049378;28;20234;-53
2022/01/08 11:38:28;;;;;;;10.60;6.53;;;3.80;99.90;;;;;;5050275;28;20654;-53
2022/01/08 11:40:58;;;;;;;10.40;6.50;;;3.70;99.90;;;;;;5055721;28;20757;-54
2022/01/08 11:43:27;;;;;;;9.73;5.70;;;3.70;99.90;;;;;;5052631;28;20297;-57
2022/01/08 11:46:02;;;;;;;13.17;6.57;;;3.80;99.90;;;;;;5050878;28;20206;-52
2022/01/08 11:48:42;;;;;;;10.50;5.43;;;3.80;99.90;;;;;;5049662;28;20209;-54
2022/01/08 11:51:15;;;;;;;13.57;5.73;;;3.90;99.90;;;;;;5050305;28;20634;-53
2022/01/08 11:53:48;;;;;;;9.03;5.37;;;3.90;99.90;;;;;;5053225;28;20287;-54
2022/01/08 11:56:27;;;;;;;10.47;5.57;;;3.90;99.90;;;;;;5049673;28;20655;-54
2022/01/08 11:59:18;;;;;;;15.57;6.77;;;3.90;99.90;;;;;;5054013;28;20734;-53
2022/01/08 12:02:06;;;;;;;8.37;4.80;;;3.90;99.90;;;;;;5052004;28;20194;-53
2022/01/08 12:04:33;;;;;;;7.73;4.67;;;3.90;99.90;;;;;;5042209;28;20281;-55
2022/01/08 12:07:24;;;;;;;6.97;3.90;;;3.80;99.90;;;;;;5049082;28;20959;-52
2022/01/08 12:10:14;;;;;;;10.40;4.83;;;3.90;99.90;;;;;;5056614;28;20671;-60
2022/01/08 12:12:46;;;;;;;9.53;4.77;;;4.00;99.90;;;;;;5055007;28;20226;-60
2022/01/08 12:15:15;;;;;;;10.43;4.50;;;3.90;99.90;;;;;;5050311;28;20267;-60
2022/01/08 12:17:56;;;;;;;8.70;4.50;;;4.00;99.90;;;;;;5055993;28;20223;-61
2022/01/08 12:20:52;;;;;;;7.10;3.93;;;4.00;99.90;;;;;;5053317;28;20200;-60
2022/01/08 12:23:28;;;;;;;11.80;5.57;;;4.00;99.90;;;;;;5055475;28;20204;-59
2022/01/08 12:25:55;;;;;;;7.83;4.23;;;4.00;99.90;;;;;;5054315;28;20257;-55
2022/01/08 12:28:53;;;;;;;9.63;4.90;;;4.00;99.90;;;;;;5054794;28;20777;-52
2022/01/08 12:31:26;;;;;;;9.30;4.33;;;4.10;99.90;;;;;;5052814;28;20305;-52
2022/01/08 12:34:26;;;;;;;8.30;4.73;;;4.10;99.90;;;;;;5053158;28;20718;-54
2022/01/08 12:37:03;;;;;;;7.43;4.30;;;4.10;99.90;;;;;;5053969;28;20232;-57
2022/01/08 12:39:43;;;;;;;7.07;3.80;;;4.10;99.90;;;;;;5057269;28;20627;-54
2022/01/08 12:42:22;;;;;;;8.30;3.60;;;4.10;99.90;;;;;;5056531;28;20215;-53
2022/01/08 12:45:41;;;;;;;7.73;3.40;;;4.20;99.90;;;;;;5054382;28;20605;-57
2022/01/08 12:48:09;;;;;;;4.67;2.87;;;4.20;99.90;;;;;;5023306;28;20248;-53
2022/01/08 12:50:58;;;;;;;6.37;3.33;;;4.20;99.90;;;;;;5053548;28;20211;-54
2022/01/08 12:53:28;;;;;;;4.70;3.40;;;4.20;99.90;;;;;;5053252;28;20736;-54
2022/01/08 12:55:57;;;;;;;6.80;3.40;;;4.30;99.90;;;;;;5053740;28;20234;-56
2022/01/08 12:58:31;;;;;;;8.80;2.70;;;4.30;99.90;;;;;;5054284;28;20228;-55
2022/01/08 13:01:15;;;;;;;8.83;2.83;;;4.20;99.90;;;;;;5056131;28;20727;-54
2022/01/08 13:03:47;;;;;;;4.67;3.20;;;4.30;99.90;;;;;;5057559;28;20230;-54
2022/01/08 13:06:14;;;;;;;4.57;3.03;;;4.20;99.90;;;;;;5055318;28;20224;-55
2022/01/08 13:08:43;;;;;;;3.77;2.97;;;4.20;99.90;;;;;;5059326;28;20314;-55
2022/01/08 13:11:13;;;;;;;5.77;2.93;;;4.10;99.90;;;;;;5057721;28;22273;-55
2022/01/08 13:14:14;;;;;;;4.33;2.53;;;4.10;99.90;;;;;;5059701;28;20715;-55
2022/01/08 13:16:48;;;;;;;4.73;2.43;;;4.10;99.90;;;;;;5057834;28;20303;-56
2022/01/08 13:19:21;;;;;;;4.10;2.53;;;4.10;99.90;;;;;;5061940;28;20636;-53
2022/01/08 13:22:02;;;;;;;5.50;2.47;;;4.20;99.90;;;;;;5054056;28;20646;-53
2022/01/08 13:24:45;;;;;;;3.03;2.03;;;4.10;99.90;;;;;;5056944;28;20221;-53